sensor_id;sensor_type;location;lat;lon;timestamp;temperature;humidity
41256;DHT22;26989;45.524;10.938;2024-02-23T00:00:03;9.60;99.90
41256;DHT22;26989;45.524;10.938;2024-02-23T00:02:32;9.40;99.90
41256;DHT22;26989;45.524;10.938;2024-02-23T00:04:59;9.40;99.90
41256;DHT22;26989;45.524;10.938;2024-02-23T00:07:26;9.40;99.90
41256;DHT22;26989;45.524;10.938;2024-02-23T00:09:53;9.40;99.90
41256;DHT22;26989;45.524;10.938;2024-02-23T00:12:20;9.40;99.90
41256;DHT22;26989;45.524;10.938;2024-02-23T00:14:47;9.50;99.90
41256;DHT22;26989;45.524;10.938;2024-02-23T00:17:14;9.50;99.90
41256;DHT22;26989;45.524;10.938;2024-02-23T00:19:40;9.50;99.90
41256;DHT22;26989;45.524;10.938;2024-02-23T00:22:07;9.50;99.90
41256;DHT22;26989;45.524;10.938;2024-02-23T00:24:35;9.40;99.90
41256;DHT22;26989;45.524;10.938;2024-02-23T00:27:03;9.30;99.90
41256;DHT22;26989;45.524;10.938;2024-02-23T00:29:30;9.20;99.90
41256;DHT22;26989;45.524;10.938;2024-02-23T00:31:57;9.20;99.90
41256;DHT22;26989;45.524;10.938;2024-02-23T00:34:24;9.30;99.90
41256;DHT22;26989;45.524;10.938;2024-02-23T00:36:51;9.30;99.90
41256;DHT22;26989;45.524;10.938;2024-02-23T00:39:18;9.20;99.90
41256;DHT22;26989;45.524;10.938;2024-02-23T00:41:45;9.20;99.90
41256;DHT22;26989;45.524;10.938;2024-02-23T00:44:12;9.20;99.90
41256;DHT22;26989;45.524;10.938;2024-02-23T00:46:39;9.30;99.90
41256;DHT22;26989;45.524;10.938;2024-02-23T00:49:06;9.30;99.90
41256;DHT22;26989;45.524;10.938;2024-02-23T00:51:33;9.30;99.90
41256;DHT22;26989;45.524;10.938;2024-02-23T00:54:00;9.40;99.90
41256;DHT22;26989;45.524;10.938;2024-02-23T00:56:27;9.40;99.90
41256;DHT22;26989;45.524;10.938;2024-02-23T00:59:06;9.50;99.90
41256;DHT22;26989;45.524;10.938;2024-02-23T01:01:33;9.30;99.90
41256;DHT22;26989;45.524;10.938;2024-02-23T01:04:00;9.30;99.90
41256;DHT22;26989;45.524;10.938;2024-02-23T01:06:27;9.30;99.90
41256;DHT22;26989;45.524;10.938;2024-02-23T01:08:55;9.40;99.90
41256;DHT22;26989;45.524;10.938;2024-02-23T01:11:22;9.30;99.90
41256;DHT22;26989;45.524;10.938;2024-02-23T01:13:49;9.40;99.90
41256;DHT22;26989;45.524;10.938;2024-02-23T01:16:16;9.50;99.90
41256;DHT22;26989;45.524;10.938;2024-02-23T01:18:43;9.40;99.90
41256;DHT22;26989;45.524;10.938;2024-02-23T01:21:10;9.50;99.90
41256;DHT22;26989;45.524;10.938;2024-02-23T01:23:37;9.40;99.90
41256;DHT22;26989;45.524;10.938;2024-02-23T01:26:04;9.50;99.90
41256;DHT22;26989;45.524;10.938;2024-02-23T01:28:31;9.40;99.90
41256;DHT22;26989;45.524;10.938;2024-02-23T01:30:58;9.40;99.90
41256;DHT22;26989;45.524;10.938;2024-02-23T01:33:25;9.40;99.90
41256;DHT22;26989;45.524;10.938;2024-02-23T01:35:52;9.30;99.90
41256;DHT22;26989;45.524;10.938;2024-02-23T01:38:18;9.40;99.90
41256;DHT22;26989;45.524;10.938;2024-02-23T01:40:47;9.50;99.90
41256;DHT22;26989;45.524;10.938;2024-02-23T01:43:15;9.50;99.90
41256;DHT22;26989;45.524;10.938;2024-02-23T01:45:42;9.40;99.90
41256;DHT22;26989;45.524;10.938;2024-02-23T01:48:09;9.50;99.90
41256;DHT22;26989;45.524;10.938;2024-02-23T01:50:36;9.60;99.90
41256;DHT22;26989;45.524;10.938;2024-02-23T01:53:04;9.50;99.90
41256;DHT22;26989;45.524;10.938;2024-02-23T01:55:32;9.60;99.90
41256;DHT22;26989;45.524;10.938;2024-02-23T01:58:04;9.50;99.90
41256;DHT22;26989;45.524;10.938;2024-02-23T02:00:35;9.50;99.90
41256;DHT22;26989;45.524;10.938;2024-02-23T02:03:03;9.50;99.90
41256;DHT22;26989;45.524;10.938;2024-02-23T02:05:36;9.60;99.90
41256;DHT22;26989;45.524;10.938;2024-02-23T02:08:03;9.60;99.90
41256;DHT22;26989;45.524;10.938;2024-02-23T02:10:31;9.60;99.90
41256;DHT22;26989;45.524;10.938;2024-02-23T02:13:04;9.60;99.90
41256;DHT22;26989;45.524;10.938;2024-02-23T02:15:32;9.60;99.90
41256;DHT22;26989;45.524;10.938;2024-02-23T02:17:59;9.70;99.90
41256;DHT22;26989;45.524;10.938;2024-02-23T02:20:28;9.70;99.90
41256;DHT22;26989;45.524;10.938;2024-02-23T02:22:59;9.60;99.90
41256;DHT22;26989;45.524;10.938;2024-02-23T02:25:26;9.70;99.90
41256;DHT22;26989;45.524;10.938;2024-02-23T02:27:53;9.80;99.90
41256;DHT22;26989;45.524;10.938;2024-02-23T02:30:20;9.70;99.90
41256;DHT22;26989;45.524;10.938;2024-02-23T02:32:46;9.70;99.90
41256;DHT22;26989;45.524;10.938;2024-02-23T02:35:13;9.80;99.90
41256;DHT22;26989;45.524;10.938;2024-02-23T02:37:40;9.80;99.90
41256;DHT22;26989;45.524;10.938;2024-02-23T02:40:08;9.70;99.90
41256;DHT22;26989;45.524;10.938;2024-02-23T02:42:35;9.80;99.90
41256;DHT22;26989;45.524;10.938;2024-02-23T02:45:02;9.70;99.90
41256;DHT22;26989;45.524;10.938;2024-02-23T02:47:30;9.80;99.90
41256;DHT22;26989;45.524;10.938;2024-02-23T02:49:57;9.80;99.90
41256;DHT22;26989;45.524;10.938;2024-02-23T02:52:24;9.70;99.90
41256;DHT22;26989;45.524;10.938;2024-02-23T02:54:51;9.70;99.90
41256;DHT22;26989;45.524;10.938;2024-02-23T02:57:18;9.80;99.90
41256;DHT22;26989;45.524;10.938;2024-02-23T02:59:45;9.70;99.90
41256;DHT22;26989;45.524;10.938;2024-02-23T03:02:12;9.70;99.90
41256;DHT22;26989;45.524;10.938;2024-02-23T03:04:47;9.90;99.90
41256;DHT22;26989;45.524;10.938;2024-02-23T03:07:15;10.00;99.90
41256;DHT22;26989;45.524;10.938;2024-02-23T03:09:41;9.90;99.90
41256;DHT22;26989;45.524;10.938;2024-02-23T03:12:10;10.00;99.90
41256;DHT22;26989;45.524;10.938;2024-02-23T03:14:37;9.90;99.90
41256;DHT22;26989;45.524;10.938;2024-02-23T03:17:07;9.90;99.90
41256;DHT22;26989;45.524;10.938;2024-02-23T03:19:36;9.70;99.90
41256;DHT22;26989;45.524;10.938;2024-02-23T03:22:04;9.80;99.90
41256;DHT22;26989;45.524;10.938;2024-02-23T03:24:31;9.80;99.90
41256;DHT22;26989;45.524;10.938;2024-02-23T03:26:58;9.80;99.90
41256;DHT22;26989;45.524;10.938;2024-02-23T03:29:26;9.90;99.90
41256;DHT22;26989;45.524;10.938;2024-02-23T03:31:56;10.10;99.90
41256;DHT22;26989;45.524;10.938;2024-02-23T03:34:23;9.90;99.90
41256;DHT22;26989;45.524;10.938;2024-02-23T03:36:50;10.10;99.90
41256;DHT22;26989;45.524;10.938;2024-02-23T03:39:17;10.00;99.90
41256;DHT22;26989;45.524;10.938;2024-02-23T03:41:44;10.00;99.90
41256;DHT22;26989;45.524;10.938;2024-02-23T03:44:11;9.90;99.90
41256;DHT22;26989;45.524;10.938;2024-02-23T03:46:38;10.00;99.90
41256;DHT22;26989;45.524;10.938;2024-02-23T03:49:05;10.10;99.90
41256;DHT22;26989;45.524;10.938;2024-02-23T03:51:31;10.10;99.90
41256;DHT22;26989;45.524;10.938;2024-02-23T03:54:03;10.20;99.90
41256;DHT22;26989;45.524;10.938;2024-02-23T03:56:30;10.20;99.90
41256;DHT22;26989;45.524;10.938;2024-02-23T03:59:03;10.20;99.90
41256;DHT22;26989;45.524;10.938;2024-02-23T04:01:31;10.10;99.90
41256;DHT22;26989;45.524;10.938;2024-02-23T04:03:58;10.00;99.90
41256;DHT22;26989;45.524;10.938;2024-02-23T04:06:25;10.10;99.90
41256;DHT22;26989;45.524;10.938;2024-02-23T04:08:51;10.10;99.90
41256;DHT22;26989;45.524;10.938;2024-02-23T04:11:18;10.10;99.90
41256;DHT22;26989;45.524;10.938;2024-02-23T04:13:46;10.00;99.90
41256;DHT22;26989;45.524;10.938;2024-02-23T04:16:16;10.20;99.90
41256;DHT22;26989;45.524;10.938;2024-02-23T04:18:43;10.10;99.90
41256;DHT22;26989;45.524;10.938;2024-02-23T04:21:10;10.00;99.90
41256;DHT22;26989;45.524;10.938;2024-02-23T04:23:36;10.10;99.90
41256;DHT22;26989;45.524;10.938;2024-02-23T04:26:03;10.10;99.90
41256;DHT22;26989;45.524;10.938;2024-02-23T04:28:30;10.20;99.90
41256;DHT22;26989;45.524;10.938;2024-02-23T04:30:58;10.10;99.90
41256;DHT22;26989;45.524;10.938;2024-02-23T04:33:25;10.10;99.90
41256;DHT22;26989;45.524;10.938;2024-02-23T04:35:52;10.00;99.90
41256;DHT22;26989;45.524;10.938;2024-02-23T04:38:19;10.10;99.90
41256;DHT22;26989;45.524;10.938;2024-02-23T04:40:46;10.10;99.90
41256;DHT22;26989;45.524;10.938;2024-02-23T04:43:13;10.10;99.90
41256;DHT22;26989;45.524;10.938;2024-02-23T04:45:40;10.10;99.90
41256;DHT22;26989;45.524;10.938;2024-02-23T04:48:07;10.20;99.90
41256;DHT22;26989;45.524;10.938;2024-02-23T04:50:34;10.30;99.90
41256;DHT22;26989;45.524;10.938;2024-02-23T04:53:01;10.20;99.90
41256;DHT22;26989;45.524;10.938;2024-02-23T04:55:29;10.20;99.90
41256;DHT22;26989;45.524;10.938;2024-02-23T04:57:55;10.20;99.90
41256;DHT22;26989;45.524;10.938;2024-02-23T05:00:23;10.10;99.90
41256;DHT22;26989;45.524;10.938;2024-02-23T05:02:50;10.10;99.90
41256;DHT22;26989;45.524;10.938;2024-02-23T05:05:17;10.50;99.90
41256;DHT22;26989;45.524;10.938;2024-02-23T05:07:43;10.80;99.90
41256;DHT22;26989;45.524;10.938;2024-02-23T05:10:10;10.70;99.90
41256;DHT22;26989;45.524;10.938;2024-02-23T05:12:37;10.60;99.90
41256;DHT22;26989;45.524;10.938;2024-02-23T05:15:04;10.60;99.90
41256;DHT22;26989;45.524;10.938;2024-02-23T05:17:31;10.60;99.90
41256;DHT22;26989;45.524;10.938;2024-02-23T05:19:58;10.70;99.90
41256;DHT22;26989;45.524;10.938;2024-02-23T05:22:26;10.70;99.90
41256;DHT22;26989;45.524;10.938;2024-02-23T05:24:52;10.90;99.90
41256;DHT22;26989;45.524;10.938;2024-02-23T05:27:20;10.70;99.90
41256;DHT22;26989;45.524;10.938;2024-02-23T05:29:46;11.00;99.90
41256;DHT22;26989;45.524;10.938;2024-02-23T05:32:13;10.80;99.90
41256;DHT22;26989;45.524;10.938;2024-02-23T05:34:40;10.70;99.90
41256;DHT22;26989;45.524;10.938;2024-02-23T05:37:08;10.50;99.90
41256;DHT22;26989;45.524;10.938;2024-02-23T05:39:35;10.80;99.90
41256;DHT22;26989;45.524;10.938;2024-02-23T05:42:02;10.60;99.90
41256;DHT22;26989;45.524;10.938;2024-02-23T05:44:28;10.70;99.90
41256;DHT22;26989;45.524;10.938;2024-02-23T05:46:55;10.60;99.90
41256;DHT22;26989;45.524;10.938;2024-02-23T05:49:22;10.70;99.90
41256;DHT22;26989;45.524;10.938;2024-02-23T05:51:49;10.80;99.90
41256;DHT22;26989;45.524;10.938;2024-02-23T05:54:16;10.80;99.90
41256;DHT22;26989;45.524;10.938;2024-02-23T05:56:44;10.60;99.90
41256;DHT22;26989;45.524;10.938;2024-02-23T05:59:12;10.50;99.90
41256;DHT22;26989;45.524;10.938;2024-02-23T06:01:39;10.50;99.90
41256;DHT22;26989;45.524;10.938;2024-02-23T06:04:06;10.50;99.90
41256;DHT22;26989;45.524;10.938;2024-02-23T06:06:33;10.60;99.90
41256;DHT22;26989;45.524;10.938;2024-02-23T06:09:00;10.50;99.90
41256;DHT22;26989;45.524;10.938;2024-02-23T06:11:27;10.30;99.90
41256;DHT22;26989;45.524;10.938;2024-02-23T06:13:55;10.30;99.90
41256;DHT22;26989;45.524;10.938;2024-02-23T06:16:22;10.30;99.90
41256;DHT22;26989;45.524;10.938;2024-02-23T06:18:49;10.40;99.90
41256;DHT22;26989;45.524;10.938;2024-02-23T06:21:18;10.30;99.90
41256;DHT22;26989;45.524;10.938;2024-02-23T06:23:45;10.30;99.90
41256;DHT22;26989;45.524;10.938;2024-02-23T06:26:12;10.30;99.90
41256;DHT22;26989;45.524;10.938;2024-02-23T06:28:39;10.30;99.90
41256;DHT22;26989;45.524;10.938;2024-02-23T06:31:09;10.30;99.90
41256;DHT22;26989;45.524;10.938;2024-02-23T06:33:36;10.50;99.90
41256;DHT22;26989;45.524;10.938;2024-02-23T06:36:04;10.50;99.90
41256;DHT22;26989;45.524;10.938;2024-02-23T06:38:31;10.70;99.90
41256;DHT22;26989;45.524;10.938;2024-02-23T06:40:58;10.80;99.90
41256;DHT22;26989;45.524;10.938;2024-02-23T06:43:25;10.70;99.90
41256;DHT22;26989;45.524;10.938;2024-02-23T06:45:53;10.50;99.90
41256;DHT22;26989;45.524;10.938;2024-02-23T06:48:20;10.40;99.90
41256;DHT22;26989;45.524;10.938;2024-02-23T06:50:47;10.30;99.90
41256;DHT22;26989;45.524;10.938;2024-02-23T06:53:14;10.20;99.90
41256;DHT22;26989;45.524;10.938;2024-02-23T06:55:41;10.30;99.90
41256;DHT22;26989;45.524;10.938;2024-02-23T06:58:08;10.30;99.90
41256;DHT22;26989;45.524;10.938;2024-02-23T07:00:38;10.40;99.90
41256;DHT22;26989;45.524;10.938;2024-02-23T07:03:05;10.30;99.90
41256;DHT22;26989;45.524;10.938;2024-02-23T07:05:32;10.30;99.90
41256;DHT22;26989;45.524;10.938;2024-02-23T07:07:59;10.10;99.90
41256;DHT22;26989;45.524;10.938;2024-02-23T07:10:26;10.10;99.90
41256;DHT22;26989;45.524;10.938;2024-02-23T07:12:53;10.20;99.90
41256;DHT22;26989;45.524;10.938;2024-02-23T07:15:21;10.10;99.90
41256;DHT22;26989;45.524;10.938;2024-02-23T07:17:48;10.10;99.90
41256;DHT22;26989;45.524;10.938;2024-02-23T07:20:15;10.20;99.90
41256;DHT22;26989;45.524;10.938;2024-02-23T07:22:44;10.20;99.90
41256;DHT22;26989;45.524;10.938;2024-02-23T07:25:19;10.20;99.90
41256;DHT22;26989;45.524;10.938;2024-02-23T07:27:56;10.20;99.90
41256;DHT22;26989;45.524;10.938;2024-02-23T07:30:29;10.20;99.90
41256;DHT22;26989;45.524;10.938;2024-02-23T07:33:11;10.20;99.90
41256;DHT22;26989;45.524;10.938;2024-02-23T07:35:39;10.20;99.90
41256;DHT22;26989;45.524;10.938;2024-02-23T07:38:06;10.20;99.90
41256;DHT22;26989;45.524;10.938;2024-02-23T07:40:54;10.10;99.90
41256;DHT22;26989;45.524;10.938;2024-02-23T07:43:23;10.10;99.90
41256;DHT22;26989;45.524;10.938;2024-02-23T07:46:01;10.10;99.90
41256;DHT22;26989;45.524;10.938;2024-02-23T07:48:30;10.10;99.90
41256;DHT22;26989;45.524;10.938;2024-02-23T07:51:05;10.10;99.90
41256;DHT22;26989;45.524;10.938;2024-02-23T07:53:32;10.20;99.90
41256;DHT22;26989;45.524;10.938;2024-02-23T07:56:09;10.10;99.90
41256;DHT22;26989;45.524;10.938;2024-02-23T07:58:36;10.10;99.90
41256;DHT22;26989;45.524;10.938;2024-02-23T08:01:03;10.20;99.90
41256;DHT22;26989;45.524;10.938;2024-02-23T08:03:31;10.20;99.90
41256;DHT22;26989;45.524;10.938;2024-02-23T08:05:58;10.10;99.90
41256;DHT22;26989;45.524;10.938;2024-02-23T08:08:30;10.20;99.90
41256;DHT22;26989;45.524;10.938;2024-02-23T08:10:59;10.30;99.90
41256;DHT22;26989;45.524;10.938;2024-02-23T08:13:28;10.30;99.90
41256;DHT22;26989;45.524;10.938;2024-02-23T08:15:56;10.40;99.90
41256;DHT22;26989;45.524;10.938;2024-02-23T08:18:23;10.40;99.90
41256;DHT22;26989;45.524;10.938;2024-02-23T08:20:51;10.40;99.90
41256;DHT22;26989;45.524;10.938;2024-02-23T08:23:18;10.40;99.90
41256;DHT22;26989;45.524;10.938;2024-02-23T08:25:54;10.40;99.90
41256;DHT22;26989;45.524;10.938;2024-02-23T08:28:23;10.40;99.90
41256;DHT22;26989;45.524;10.938;2024-02-23T08:30:54;10.40;99.90
41256;DHT22;26989;45.524;10.938;2024-02-23T08:33:30;10.40;99.90
41256;DHT22;26989;45.524;10.938;2024-02-23T08:36:02;10.50;99.90
41256;DHT22;26989;45.524;10.938;2024-02-23T08:38:45;10.50;99.90
41256;DHT22;26989;45.524;10.938;2024-02-23T08:41:42;10.40;99.90
41256;DHT22;26989;45.524;10.938;2024-02-23T08:44:09;10.50;99.90
41256;DHT22;26989;45.524;10.938;2024-02-23T08:46:38;10.50;99.90
41256;DHT22;26989;45.524;10.938;2024-02-23T08:49:06;10.50;99.90
41256;DHT22;26989;45.524;10.938;2024-02-23T08:51:33;10.40;99.90
41256;DHT22;26989;45.524;10.938;2024-02-23T08:54:00;10.40;99.90
41256;DHT22;26989;45.524;10.938;2024-02-23T08:56:31;10.40;99.90
41256;DHT22;26989;45.524;10.938;2024-02-23T08:58:58;10.50;99.90
41256;DHT22;26989;45.524;10.938;2024-02-23T09:01:26;10.40;99.90
41256;DHT22;26989;45.524;10.938;2024-02-23T09:03:54;10.40;99.90
41256;DHT22;26989;45.524;10.938;2024-02-23T09:06:21;10.50;99.90
41256;DHT22;26989;45.524;10.938;2024-02-23T09:08:49;10.50;99.90
41256;DHT22;26989;45.524;10.938;2024-02-23T09:11:16;10.50;99.90
41256;DHT22;26989;45.524;10.938;2024-02-23T09:13:43;10.50;99.90
41256;DHT22;26989;45.524;10.938;2024-02-23T09:16:11;10.50;99.90
41256;DHT22;26989;45.524;10.938;2024-02-23T09:18:41;10.50;99.90
41256;DHT22;26989;45.524;10.938;2024-02-23T09:21:10;10.70;99.90
41256;DHT22;26989;45.524;10.938;2024-02-23T09:23:37;10.60;99.90
41256;DHT22;26989;45.524;10.938;2024-02-23T09:26:09;10.80;99.90
41256;DHT22;26989;45.524;10.938;2024-02-23T09:28:37;10.90;99.90
41256;DHT22;26989;45.524;10.938;2024-02-23T09:31:04;10.80;99.90
41256;DHT22;26989;45.524;10.938;2024-02-23T09:33:32;10.80;99.90
41256;DHT22;26989;45.524;10.938;2024-02-23T09:36:23;10.80;99.90
41256;DHT22;26989;45.524;10.938;2024-02-23T09:38:59;10.80;99.90
41256;DHT22;26989;45.524;10.938;2024-02-23T09:41:29;10.70;99.90
41256;DHT22;26989;45.524;10.938;2024-02-23T09:44:04;10.70;99.90
41256;DHT22;26989;45.524;10.938;2024-02-23T09:46:40;10.70;99.90
41256;DHT22;26989;45.524;10.938;2024-02-23T09:49:10;10.60;99.90
41256;DHT22;26989;45.524;10.938;2024-02-23T09:51:39;10.50;99.90
41256;DHT22;26989;45.524;10.938;2024-02-23T09:54:13;10.50;99.90
41256;DHT22;26989;45.524;10.938;2024-02-23T09:56:46;10.50;99.90
41256;DHT22;26989;45.524;10.938;2024-02-23T09:59:15;10.60;99.90
41256;DHT22;26989;45.524;10.938;2024-02-23T10:01:42;10.70;99.90
41256;DHT22;26989;45.524;10.938;2024-02-23T10:04:10;11.00;99.90
41256;DHT22;26989;45.524;10.938;2024-02-23T10:06:50;11.10;99.90
41256;DHT22;26989;45.524;10.938;2024-02-23T10:09:18;11.20;99.90
41256;DHT22;26989;45.524;10.938;2024-02-23T10:11:55;11.10;99.90
41256;DHT22;26989;45.524;10.938;2024-02-23T10:14:28;10.90;99.90
41256;DHT22;26989;45.524;10.938;2024-02-23T10:17:02;10.90;99.90
41256;DHT22;26989;45.524;10.938;2024-02-23T10:19:48;11.00;99.90
41256;DHT22;26989;45.524;10.938;2024-02-23T10:22:16;11.00;99.90
41256;DHT22;26989;45.524;10.938;2024-02-23T10:24:43;11.00;99.90
41256;DHT22;26989;45.524;10.938;2024-02-23T10:27:11;10.90;99.90
41256;DHT22;26989;45.524;10.938;2024-02-23T10:29:38;10.90;99.90
41256;DHT22;26989;45.524;10.938;2024-02-23T10:32:06;11.00;99.90
41256;DHT22;26989;45.524;10.938;2024-02-23T10:34:37;11.10;99.90
41256;DHT22;26989;45.524;10.938;2024-02-23T10:37:10;11.10;99.90
41256;DHT22;26989;45.524;10.938;2024-02-23T10:39:37;11.10;99.90
41256;DHT22;26989;45.524;10.938;2024-02-23T10:42:09;11.10;99.90
41256;DHT22;26989;45.524;10.938;2024-02-23T10:44:39;11.20;99.90
41256;DHT22;26989;45.524;10.938;2024-02-23T10:47:08;11.30;99.90
41256;DHT22;26989;45.524;10.938;2024-02-23T10:49:36;11.30;99.90
41256;DHT22;26989;45.524;10.938;2024-02-23T10:52:05;11.30;99.90
41256;DHT22;26989;45.524;10.938;2024-02-23T10:54:34;11.40;99.90
41256;DHT22;26989;45.524;10.938;2024-02-23T10:57:02;11.40;99.90
41256;DHT22;26989;45.524;10.938;2024-02-23T10:59:29;11.50;99.90
41256;DHT22;26989;45.524;10.938;2024-02-23T11:01:57;11.40;99.90
41256;DHT22;26989;45.524;10.938;2024-02-23T11:04:27;11.50;99.90
41256;DHT22;26989;45.524;10.938;2024-02-23T11:06:56;11.50;99.90
41256;DHT22;26989;45.524;10.938;2024-02-23T11:09:31;11.40;99.90
41256;DHT22;26989;45.524;10.938;2024-02-23T11:12:06;11.40;99.90
41256;DHT22;26989;45.524;10.938;2024-02-23T11:14:37;11.30;99.90
41256;DHT22;26989;45.524;10.938;2024-02-23T11:17:06;11.30;99.90
41256;DHT22;26989;45.524;10.938;2024-02-23T11:19:38;11.20;99.90
41256;DHT22;26989;45.524;10.938;2024-02-23T11:22:10;11.30;99.90
41256;DHT22;26989;45.524;10.938;2024-02-23T11:24:49;11.30;99.90
41256;DHT22;26989;45.524;10.938;2024-02-23T11:27:24;11.40;99.90
41256;DHT22;26989;45.524;10.938;2024-02-23T11:29:59;11.50;99.90
41256;DHT22;26989;45.524;10.938;2024-02-23T11:32:43;11.60;99.90
41256;DHT22;26989;45.524;10.938;2024-02-23T11:35:12;11.60;99.90
41256;DHT22;26989;45.524;10.938;2024-02-23T11:37:53;11.50;99.90
41256;DHT22;26989;45.524;10.938;2024-02-23T11:40:32;11.50;99.90
41256;DHT22;26989;45.524;10.938;2024-02-23T11:42:59;11.40;99.90
41256;DHT22;26989;45.524;10.938;2024-02-23T11:45:29;11.40;99.90
41256;DHT22;26989;45.524;10.938;2024-02-23T11:47:58;11.50;99.90
41256;DHT22;26989;45.524;10.938;2024-02-23T11:50:26;11.60;99.90
41256;DHT22;26989;45.524;10.938;2024-02-23T11:52:53;11.60;99.90
41256;DHT22;26989;45.524;10.938;2024-02-23T11:55:21;11.70;99.90
41256;DHT22;26989;45.524;10.938;2024-02-23T11:57:50;11.80;99.90
41256;DHT22;26989;45.524;10.938;2024-02-23T12:00:30;11.90;99.90
41256;DHT22;26989;45.524;10.938;2024-02-23T12:02:58;12.00;99.90
41256;DHT22;26989;45.524;10.938;2024-02-23T12:05:25;12.00;99.90
41256;DHT22;26989;45.524;10.938;2024-02-23T12:07:52;12.00;99.90
41256;DHT22;26989;45.524;10.938;2024-02-23T12:10:20;11.90;99.90
41256;DHT22;26989;45.524;10.938;2024-02-23T12:12:47;11.80;99.90
41256;DHT22;26989;45.524;10.938;2024-02-23T12:15:16;12.00;99.90
41256;DHT22;26989;45.524;10.938;2024-02-23T12:17:48;11.90;99.90
41256;DHT22;26989;45.524;10.938;2024-02-23T12:20:15;11.80;99.90
41256;DHT22;26989;45.524;10.938;2024-02-23T12:22:43;11.70;99.90
41256;DHT22;26989;45.524;10.938;2024-02-23T12:25:12;11.60;99.90
41256;DHT22;26989;45.524;10.938;2024-02-23T12:27:39;11.60;99.90
41256;DHT22;26989;45.524;10.938;2024-02-23T12:30:13;11.50;99.90
41256;DHT22;26989;45.524;10.938;2024-02-23T12:32:41;11.50;99.90
41256;DHT22;26989;45.524;10.938;2024-02-23T12:35:11;11.40;99.90
41256;DHT22;26989;45.524;10.938;2024-02-23T12:37:39;11.30;99.90
41256;DHT22;26989;45.524;10.938;2024-02-23T12:40:10;11.30;99.90
41256;DHT22;26989;45.524;10.938;2024-02-23T12:42:37;11.30;99.90
41256;DHT22;26989;45.524;10.938;2024-02-23T12:45:05;11.20;99.90
41256;DHT22;26989;45.524;10.938;2024-02-23T12:47:32;11.20;99.90
41256;DHT22;26989;45.524;10.938;2024-02-23T12:49:59;11.10;99.90
41256;DHT22;26989;45.524;10.938;2024-02-23T12:52:26;11.10;99.90
41256;DHT22;26989;45.524;10.938;2024-02-23T12:54:53;11.10;99.90
41256;DHT22;26989;45.524;10.938;2024-02-23T12:57:20;11.10;99.90
41256;DHT22;26989;45.524;10.938;2024-02-23T12:59:47;11.00;99.90
41256;DHT22;26989;45.524;10.938;2024-02-23T13:02:15;10.90;99.90
41256;DHT22;26989;45.524;10.938;2024-02-23T13:04:42;10.80;99.90
41256;DHT22;26989;45.524;10.938;2024-02-23T13:07:15;10.80;99.90
41256;DHT22;26989;45.524;10.938;2024-02-23T13:09:44;10.70;99.90
41256;DHT22;26989;45.524;10.938;2024-02-23T13:12:11;10.70;99.90
41256;DHT22;26989;45.524;10.938;2024-02-23T13:14:38;10.70;99.90
41256;DHT22;26989;45.524;10.938;2024-02-23T13:17:05;10.70;99.90
41256;DHT22;26989;45.524;10.938;2024-02-23T13:19:32;10.70;99.90
41256;DHT22;26989;45.524;10.938;2024-02-23T13:21:59;10.70;99.90
41256;DHT22;26989;45.524;10.938;2024-02-23T13:24:28;10.70;99.90
41256;DHT22;26989;45.524;10.938;2024-02-23T13:26:55;10.70;99.90
41256;DHT22;26989;45.524;10.938;2024-02-23T13:29:22;10.80;99.90
41256;DHT22;26989;45.524;10.938;2024-02-23T13:31:49;10.80;99.90
41256;DHT22;26989;45.524;10.938;2024-02-23T13:34:16;10.90;99.90
41256;DHT22;26989;45.524;10.938;2024-02-23T13:36:45;11.00;99.90
41256;DHT22;26989;45.524;10.938;2024-02-23T13:39:19;11.00;99.90
41256;DHT22;26989;45.524;10.938;2024-02-23T13:41:47;10.90;99.90
41256;DHT22;26989;45.524;10.938;2024-02-23T13:44:17;10.80;99.90
41256;DHT22;26989;45.524;10.938;2024-02-23T13:46:46;10.80;99.90
41256;DHT22;26989;45.524;10.938;2024-02-23T13:49:23;10.70;99.90
41256;DHT22;26989;45.524;10.938;2024-02-23T13:51:50;10.60;99.90
41256;DHT22;26989;45.524;10.938;2024-02-23T13:54:17;10.60;99.90
41256;DHT22;26989;45.524;10.938;2024-02-23T13:56:44;10.60;99.90
41256;DHT22;26989;45.524;10.938;2024-02-23T13:59:11;10.40;99.90
41256;DHT22;26989;45.524;10.938;2024-02-23T14:01:38;10.50;99.90
41256;DHT22;26989;45.524;10.938;2024-02-23T14:04:07;10.50;99.90
41256;DHT22;26989;45.524;10.938;2024-02-23T14:06:34;10.50;99.90
41256;DHT22;26989;45.524;10.938;2024-02-23T14:09:01;10.50;99.90
41256;DHT22;26989;45.524;10.938;2024-02-23T14:11:30;10.50;99.90
41256;DHT22;26989;45.524;10.938;2024-02-23T14:13:57;10.60;99.90
41256;DHT22;26989;45.524;10.938;2024-02-23T14:16:25;10.60;99.90
41256;DHT22;26989;45.524;10.938;2024-02-23T14:18:56;10.60;99.90
41256;DHT22;26989;45.524;10.938;2024-02-23T14:21:24;10.70;99.90
41256;DHT22;26989;45.524;10.938;2024-02-23T14:23:52;10.70;99.90
41256;DHT22;26989;45.524;10.938;2024-02-23T14:26:19;10.70;99.90
41256;DHT22;26989;45.524;10.938;2024-02-23T14:28:46;10.70;99.90
41256;DHT22;26989;45.524;10.938;2024-02-23T14:31:18;10.60;99.90
41256;DHT22;26989;45.524;10.938;2024-02-23T14:33:45;10.50;99.90
41256;DHT22;26989;45.524;10.938;2024-02-23T14:36:18;10.50;99.90
41256;DHT22;26989;45.524;10.938;2024-02-23T14:38:46;10.40;99.90
41256;DHT22;26989;45.524;10.938;2024-02-23T14:41:17;10.40;99.90
41256;DHT22;26989;45.524;10.938;2024-02-23T14:43:55;10.40;99.90
41256;DHT22;26989;45.524;10.938;2024-02-23T14:46:22;10.40;99.90
41256;DHT22;26989;45.524;10.938;2024-02-23T14:48:50;10.40;99.90
41256;DHT22;26989;45.524;10.938;2024-02-23T14:51:26;10.30;99.90
41256;DHT22;26989;45.524;10.938;2024-02-23T14:53:55;10.30;99.90
41256;DHT22;26989;45.524;10.938;2024-02-23T14:56:27;10.30;99.90
41256;DHT22;26989;45.524;10.938;2024-02-23T14:58:54;10.40;99.90
41256;DHT22;26989;45.524;10.938;2024-02-23T15:01:21;10.30;99.90
41256;DHT22;26989;45.524;10.938;2024-02-23T15:03:55;10.30;99.90
41256;DHT22;26989;45.524;10.938;2024-02-23T15:06:24;10.30;99.90
41256;DHT22;26989;45.524;10.938;2024-02-23T15:08:51;10.30;99.90
41256;DHT22;26989;45.524;10.938;2024-02-23T15:11:23;10.30;99.90
41256;DHT22;26989;45.524;10.938;2024-02-23T15:13:52;10.30;99.90
41256;DHT22;26989;45.524;10.938;2024-02-23T15:16:34;10.30;99.90
41256;DHT22;26989;45.524;10.938;2024-02-23T15:19:07;10.30;99.90
41256;DHT22;26989;45.524;10.938;2024-02-23T15:21:37;10.30;99.90
41256;DHT22;26989;45.524;10.938;2024-02-23T15:24:07;10.20;99.90
41256;DHT22;26989;45.524;10.938;2024-02-23T15:26:35;10.20;99.90
41256;DHT22;26989;45.524;10.938;2024-02-23T15:29:02;10.30;99.90